Cambridge, Canada
Current Conditions -  °F | °C
As of 8:00 PM on Sunday 23 Nov 2014 (Local Time) from CYKF Reporting Station
Broken Clouds Broken Clouds  
Wind Chill: 40°   Ceiling: 2900
Heat Index: 45°   Visibility: 9mi
Dew Point: 41°   Wind: 8mph
Humidity: 87%   Direction: 100°E
Pressure: 29.7"   Gusts: NA
Location:  43.38°N, 80.32°W
Report Text: CYKF 240100Z AUTO 10007KT 9SM BKN029 07/05 A2970 RMK PRESFR SLP063
Loading
Personal Weather Stations






























Interactive Weather Map New forecast layout! Learn more

10-Day Weather Forecast

Advertisements
Track Severe Weather on mobile